Time;durP1;ratioP1;P1;durP2;ratioP2;P2;SDS_P1;SDS_P2;PMS_P1;PMS_P2;Temp;Humidity;BMP_temperature;BMP_pressure;BME280_temperature;BME280_humidity;BME280_pressure;Samples;Min_cycle;Max_cycle;Signal;HPM_P1;HPM_P2
2021/04/27 00:00:57;;;;;;;8.00;4.33;;;9.20;28.90;;;;;;4968783;29;20437;-90
2021/04/27 00:03:23;;;;;;;12.30;5.13;;;8.90;28.80;;;;;;4962430;29;20444;-90
2021/04/27 00:05:50;;;;;;;8.87;4.40;;;9.00;28.80;;;;;;4962191;29;20453;-90
2021/04/27 00:08:16;;;;;;;5.43;4.10;;;8.90;29.10;;;;;;4961197;29;20457;-90
2021/04/27 00:10:45;;;;;;;10.23;4.57;;;9.00;29.60;;;;;;4961389;29;20461;-90
2021/04/27 00:13:12;;;;;;;16.90;4.63;;;8.90;28.80;;;;;;4960688;29;20481;-90
2021/04/27 00:15:39;;;;;;;5.93;4.57;;;9.10;28.60;;;;;;4960972;29;20858;-91
2021/04/27 00:18:06;;;;;;;6.97;4.37;;;8.80;28.70;;;;;;4960320;29;20445;-91
2021/04/27 00:20:33;;;;;;;26.50;5.17;;;9.00;29.00;;;;;;4960361;29;20476;-90
2021/04/27 00:22:59;;;;;;;7.10;4.50;;;9.20;28.40;;;;;;5024406;28;20476;-91
2021/04/27 00:29:17;;;;;;;7.30;3.93;;;9.00;28.50;;;;;;5020586;28;20437;-91
2021/04/27 00:31:44;;;;;;;4.97;4.10;;;9.90;31.50;;;;;;5101121;28;20542;-91
2021/04/27 00:34:11;;;;;;;7.70;4.57;;;10.30;27.10;;;;;;5104325;28;20466;-91
2021/04/27 00:36:37;;;;;;;9.33;4.53;;;9.90;26.90;;;;;;5101600;28;20506;-91
2021/04/27 00:39:04;;;;;;;17.70;4.70;;;10.30;29.30;;;;;;5097941;28;20430;-91
2021/04/27 00:41:31;;;;;;;9.17;4.70;;;10.50;26.10;;;;;;5099905;28;20462;-90
2021/04/27 00:43:57;;;;;;;7.73;4.37;;;10.70;26.10;;;;;;5092926;28;20443;-91
2021/04/27 00:46:25;;;;;;;7.00;4.13;;;10.90;25.30;;;;;;5083037;28;20464;-91
2021/04/27 00:48:52;;;;;;;5.67;3.50;;;10.90;26.30;;;;;;5081830;28;20452;-91
2021/04/27 00:51:23;;;;;;;5.10;3.90;;;10.90;28.80;;;;;;5082451;28;20447;-91
2021/04/27 00:53:51;;;;;;;6.30;4.43;;;11.30;28.20;;;;;;5090968;28;20470;-91
2021/04/27 00:56:19;;;;;;;5.87;4.07;;;11.30;26.10;;;;;;5095180;28;20448;-91
2021/04/27 01:12:31;;;;;;;4.20;3.50;;;11.90;25.70;;;;;;4965154;29;20417;-90
2021/04/27 01:15:04;;;;;;;6.83;4.43;;;12.30;27.60;;;;;;4963108;29;20480;-91
2021/04/27 01:17:31;;;;;;;7.40;3.30;;;12.70;26.30;;;;;;4962531;29;20441;-91
2021/04/27 01:20:05;;;;;;;4.93;3.43;;;12.50;26.50;;;;;;4962680;29;20932;-91
2021/04/27 01:22:48;;;;;;;4.13;3.20;;;12.60;29.40;;;;;;4964207;29;20447;-91
2021/04/27 01:25:19;;;;;;;12.20;3.20;;;12.50;27.50;;;;;;4980265;28;20421;-92
2021/04/27 01:27:46;;;;;;;8.90;3.60;;;12.50;28.20;;;;;;4980760;28;20447;-92
2021/04/27 01:33:56;;;;;;;11.60;4.30;;;12.80;28.40;;;;;;4980607;28;20520;-93
2021/04/27 01:53:17;;;;;;;7.33;4.40;;;9.30;27.40;;;;;;5000902;28;20404;-93
2021/04/27 01:55:44;;;;;;;6.53;4.00;;;8.90;27.60;;;;;;5000660;28;20539;-92
2021/04/27 01:58:10;;;;;;;24.47;8.47;;;8.40;28.40;;;;;;5006579;28;20547;-92
2021/04/27 02:00:37;;;;;;;18.17;4.53;;;8.70;28.60;;;;;;5006471;28;20541;-91
2021/04/27 02:03:05;;;;;;;9.40;4.60;;;8.80;27.70;;;;;;5003682;28;20462;-91
2021/04/27 02:05:32;;;;;;;7.63;4.60;;;8.90;28.40;;;;;;5003367;28;20506;-91
2021/04/27 02:07:58;;;;;;;9.73;3.70;;;9.00;28.00;;;;;;5004335;28;20546;-91
2021/04/27 02:10:27;;;;;;;8.73;3.77;;;8.60;33.10;;;;;;5002255;28;20827;-91
2021/04/27 02:12:57;;;;;;;4.63;3.70;;;10.20;31.90;;;;;;5002736;28;20427;-91
2021/04/27 02:15:26;;;;;;;5.90;4.00;;;10.90;31.30;;;;;;5001796;28;20452;-92
2021/04/27 02:17:55;;;;;;;5.80;3.27;;;11.20;27.80;;;;;;5002661;28;20451;-92
2021/04/27 02:20:24;;;;;;;8.10;3.90;;;11.50;30.60;;;;;;5000979;28;20439;-91
2021/04/27 02:22:52;;;;;;;7.23;3.93;;;11.80;27.00;;;;;;5019608;28;20490;-91
2021/04/27 02:38:47;;;;;;;16.83;4.63;;;8.90;28.00;;;;;;5099158;22;20482;-91
2021/04/27 02:41:14;;;;;;;5.27;3.40;;;8.10;29.20;;;;;;5100169;28;20458;-91
2021/04/27 02:43:41;;;;;;;5.57;3.33;;;8.20;33.90;;;;;;5094209;28;20431;-91
2021/04/27 02:46:08;;;;;;;8.20;4.20;;;9.10;33.70;;;;;;5083570;28;20589;-91
2021/04/27 03:12:22;;;;;;;5.73;3.47;;;13.50;28.40;;;;;;5020051;28;20426;-91
2021/04/27 03:14:49;;;;;;;4.03;3.43;;;13.30;28.80;;;;;;5020331;28;20466;-91
2021/04/27 03:17:15;;;;;;;4.07;2.90;;;13.70;29.20;;;;;;5019614;28;20538;-91
2021/04/27 03:19:42;;;;;;;4.47;3.20;;;13.60;29.20;;;;;;5021926;28;20450;-91
2021/04/27 03:22:09;;;;;;;4.70;3.43;;;14.00;29.40;;;;;;5023862;28;20418;-92
2021/04/27 03:24:35;;;;;;;5.77;3.30;;;13.90;29.10;;;;;;5030729;28;20478;-92
2021/04/27 03:27:02;;;;;;;7.13;3.60;;;14.10;29.30;;;;;;5021904;28;20481;-92
2021/04/27 03:29:28;;;;;;;7.50;3.70;;;14.10;29.40;;;;;;5020835;28;20428;-91
2021/04/27 03:31:56;;;;;;;4.33;3.00;;;14.00;28.90;;;;;;5020590;28;20508;-91
2021/04/27 03:34:22;;;;;;;4.97;3.30;;;13.80;28.30;;;;;;5028616;28;20481;-91
2021/04/27 03:36:49;;;;;;;14.97;4.63;;;13.50;28.40;;;;;;5026193;28;20458;-91
2021/04/27 03:39:16;;;;;;;4.97;3.67;;;12.90;23.60;;;;;;5031713;28;20542;-91
2021/04/27 03:41:42;;;;;;;6.00;3.40;;;11.20;29.60;;;;;;5020095;28;20446;-91
2021/04/27 03:44:09;;;;;;;8.00;3.20;;;11.60;30.70;;;;;;5018212;28;20452;-92
2021/04/27 03:46:35;;;;;;;5.77;3.80;;;12.30;31.50;;;;;;5018435;28;20549;-91
2021/04/27 03:49:03;;;;;;;3.47;3.20;;;12.80;30.80;;;;;;5060820;28;20470;-91
2021/04/27 03:51:30;;;;;;;3.17;2.83;;;13.00;30.00;;;;;;5079392;28;20439;-92
2021/04/27 03:53:57;;;;;;;3.70;2.97;;;13.50;30.00;;;;;;5079604;28;20826;-91
2021/04/27 03:56:23;;;;;;;5.30;3.43;;;13.60;29.00;;;;;;5078878;28;20491;-91
2021/04/27 03:58:50;;;;;;;6.40;3.30;;;13.50;29.00;;;;;;5079692;28;20452;-91
2021/04/27 04:01:16;;;;;;;7.70;3.20;;;13.40;29.40;;;;;;5080632;28;20452;-91
2021/04/27 04:03:43;;;;;;;3.23;2.70;;;13.60;30.00;;;;;;5079207;28;20443;-91
2021/04/27 04:06:10;;;;;;;6.43;3.43;;;13.70;30.10;;;;;;5079320;28;20983;-92
2021/04/27 04:08:37;;;;;;;6.67;3.17;;;14.10;29.40;;;;;;5080098;28;20929;-92
2021/04/27 04:11:04;;;;;;;7.97;3.60;;;14.10;28.20;;;;;;5080161;28;20438;-92
2021/04/27 04:13:31;;;;;;;7.53;3.83;;;14.00;26.30;;;;;;5079747;28;20471;-92
2021/04/27 04:15:57;;;;;;;4.17;3.30;;;13.40;27.20;;;;;;5082590;28;20475;-92
2021/04/27 04:18:24;;;;;;;4.83;2.90;;;13.10;27.60;;;;;;5091483;28;20485;-92
2021/04/27 04:20:52;;;;;;;3.40;3.17;;;12.80;29.80;;;;;;5080351;28;20440;-92
2021/04/27 04:23:20;;;;;;;6.23;3.73;;;13.20;29.30;;;;;;5080148;28;20530;-92
2021/04/27 04:25:46;;;;;;;12.67;4.00;;;13.00;27.20;;;;;;5079678;28;20507;-92
2021/04/27 04:28:13;;;;;;;5.70;3.07;;;13.30;29.50;;;;;;5079584;28;20447;-92
2021/04/27 04:30:40;;;;;;;9.47;3.43;;;13.60;30.50;;;;;;5080296;28;20448;-92
2021/04/27 04:33:06;;;;;;;4.20;3.27;;;13.50;29.70;;;;;;5079406;28;20542;-92
2021/04/27 04:35:33;;;;;;;7.73;3.40;;;13.80;30.00;;;;;;5079893;28;20451;-92
2021/04/27 04:38:00;;;;;;;6.63;3.90;;;14.10;29.70;;;;;;5078759;28;20509;-92
2021/04/27 04:40:28;;;;;;;4.63;3.70;;;14.20;27.70;;;;;;5080457;28;20483;-93
2021/04/27 04:42:54;;;;;;;6.03;3.63;;;13.80;27.70;;;;;;5081304;28;20799;-92
2021/04/27 04:45:25;;;;;;;5.57;3.77;;;13.90;27.70;;;;;;5090138;28;20438;-92
2021/04/27 04:47:52;;;;;;;9.80;4.70;;;14.00;27.60;;;;;;5094652;28;20431;-92
2021/04/27 04:50:19;;;;;;;9.13;4.10;;;13.10;25.10;;;;;;5095065;28;20463;-91
2021/04/27 04:52:46;;;;;;;4.80;3.40;;;12.30;27.20;;;;;;5095746;28;20444;-92
2021/04/27 04:55:14;;;;;;;4.50;3.33;;;12.30;30.30;;;;;;5094282;28;20464;-91
2021/04/27 04:57:43;;;;;;;6.03;3.77;;;12.60;28.60;;;;;;5095131;28;20545;-92
2021/04/27 05:00:13;;;;;;;5.33;4.10;;;12.60;29.00;;;;;;5094354;28;20454;-91
2021/04/27 05:02:40;;;;;;;5.27;4.07;;;12.80;26.50;;;;;;5093916;28;20430;-92
2021/04/27 05:05:08;;;;;;;10.33;5.87;;;12.70;28.30;;;;;;5091459;28;20528;-91
2021/04/27 05:07:41;;;;;;;8.30;4.03;;;12.70;25.80;;;;;;5078604;28;20489;-92
2021/04/27 05:10:09;;;;;;;9.83;6.03;;;12.70;28.50;;;;;;5078691;28;20472;-92
2021/04/27 05:12:35;;;;;;;10.90;5.37;;;12.40;25.60;;;;;;5078527;28;20478;-92
2021/04/27 05:15:04;;;;;;;15.50;6.03;;;12.10;26.40;;;;;;5079271;28;20503;-91
2021/04/27 05:17:30;;;;;;;8.57;6.07;;;11.90;26.40;;;;;;5078215;28;21066;-91
2021/04/27 05:20:00;;;;;;;10.13;7.50;;;11.10;27.20;;;;;;5086053;28;20478;-91
2021/04/27 05:22:27;;;;;;;18.07;5.90;;;10.80;26.80;;;;;;5088055;28;20952;-91
2021/04/27 05:24:55;;;;;;;8.33;5.57;;;10.90;26.90;;;;;;5078240;28;20976;-91
2021/04/27 05:27:21;;;;;;;12.73;5.60;;;11.30;27.20;;;;;;5081338;28;20471;-91
2021/04/27 05:29:48;;;;;;;7.83;5.13;;;11.60;27.20;;;;;;5083723;28;20457;-92
2021/04/27 05:32:16;;;;;;;13.97;4.83;;;12.70;26.70;;;;;;5084007;28;20470;-91
2021/04/27 05:34:43;;;;;;;8.20;5.63;;;13.80;26.30;;;;;;5090511;28;20514;-91
2021/04/27 05:37:10;;;;;;;11.07;4.63;;;15.10;25.20;;;;;;5083682;28;20515;-92
2021/04/27 05:39:37;;;;;;;11.27;4.83;;;15.90;23.40;;;;;;5080300;28;20507;-92
2021/04/27 05:42:05;;;;;;;13.57;5.10;;;16.80;23.00;;;;;;5081308;28;20471;-90
2021/04/27 05:44:31;;;;;;;10.87;5.87;;;17.20;20.50;;;;;;5078259;28;20452;-92
2021/04/27 05:46:59;;;;;;;5.53;4.27;;;16.60;21.70;;;;;;5080423;28;20528;-92
2021/04/27 05:49:26;;;;;;;20.17;4.70;;;16.60;21.70;;;;;;5087087;28;20437;-91
2021/04/27 05:51:53;;;;;;;15.00;4.30;;;17.10;21.30;;;;;;5088377;28;20458;-92
2021/04/27 05:54:19;;;;;;;6.60;4.40;;;17.20;21.20;;;;;;5087311;28;21000;-91
2021/04/27 05:56:46;;;;;;;12.63;4.87;;;17.40;20.60;;;;;;5087944;28;20471;-92
2021/04/27 05:59:14;;;;;;;7.60;5.13;;;18.00;20.80;;;;;;5089841;28;20451;-92
2021/04/27 06:01:41;;;;;;;11.77;4.20;;;19.00;20.20;;;;;;5089761;28;20459;-91
2021/04/27 06:04:08;;;;;;;9.30;4.50;;;19.00;20.10;;;;;;5087811;28;20439;-92
2021/04/27 06:06:36;;;;;;;6.40;3.67;;;19.50;19.40;;;;;;5086086;28;20544;-90
2021/04/27 06:09:05;;;;;;;10.60;4.13;;;19.20;20.00;;;;;;5087593;28;20451;-91
2021/04/27 06:11:31;;;;;;;5.60;3.80;;;19.40;19.60;;;;;;5087484;28;21019;-91
2021/04/27 06:13:59;;;;;;;7.13;4.13;;;19.70;19.00;;;;;;5086295;28;20482;-91
2021/04/27 06:16:26;;;;;;;8.40;4.53;;;19.90;18.70;;;;;;5085340;28;20544;-91
2021/04/27 06:18:53;;;;;;;9.10;4.83;;;19.90;18.70;;;;;;5085666;28;20828;-91
2021/04/27 06:21:20;;;;;;;13.50;4.70;;;20.10;18.80;;;;;;5084830;28;20447;-92
2021/04/27 06:23:48;;;;;;;8.70;5.13;;;20.00;18.10;;;;;;5093053;28;20443;-91
2021/04/27 06:26:15;;;;;;;13.80;4.50;;;19.90;19.10;;;;;;5086625;28;20458;-91
2021/04/27 06:28:43;;;;;;;8.23;4.20;;;20.10;18.10;;;;;;5086265;28;20447;-89
2021/04/27 06:31:10;;;;;;;7.07;4.07;;;20.50;18.40;;;;;;5085318;28;20439;-90
2021/04/27 06:33:37;;;;;;;10.60;4.73;;;20.80;17.70;;;;;;5085817;28;20505;-91
2021/04/27 06:36:04;;;;;;;16.00;4.90;;;20.50;18.40;;;;;;5086842;28;20493;-91
2021/04/27 06:38:31;;;;;;;12.80;5.37;;;21.50;17.20;;;;;;5085668;28;20924;-91
2021/04/27 06:40:58;;;;;;;6.37;4.37;;;21.60;17.20;;;;;;5085411;28;20452;-91
2021/04/27 06:43:25;;;;;;;12.33;4.53;;;22.00;16.80;;;;;;5084692;28;20439;-91
2021/04/27 06:45:52;;;;;;;6.83;4.63;;;21.90;17.20;;;;;;5084569;28;20471;-91
2021/04/27 06:48:19;;;;;;;11.10;4.60;;;21.80;16.90;;;;;;5086313;28;20448;-92
2021/04/27 06:50:46;;;;;;;9.47;4.90;;;22.10;17.10;;;;;;5087442;28;20452;-92
2021/04/27 06:53:13;;;;;;;12.43;5.10;;;21.20;17.30;;;;;;5081179;28;20941;-92
2021/04/27 06:55:40;;;;;;;6.00;4.80;;;21.10;17.40;;;;;;5082950;28;20813;-92
2021/04/27 06:58:08;;;;;;;10.33;5.07;;;21.00;17.30;;;;;;5083088;28;20432;-92
2021/04/27 07:00:35;;;;;;;9.80;5.10;;;20.60;17.70;;;;;;5081076;28;20478;-91
2021/04/27 07:03:02;;;;;;;8.23;4.70;;;19.50;18.70;;;;;;5081630;28;20431;-91
2021/04/27 07:05:29;;;;;;;9.53;4.20;;;21.00;18.70;;;;;;5082661;28;20521;-92
2021/04/27 07:07:57;;;;;;;8.17;5.07;;;21.80;17.70;;;;;;5082627;28;20451;-92
2021/04/27 07:10:24;;;;;;;9.40;4.10;;;23.20;16.40;;;;;;5082361;28;20801;-92
2021/04/27 07:12:51;;;;;;;12.17;4.77;;;23.60;16.00;;;;;;5081310;28;20444;-93
2021/04/27 07:15:19;;;;;;;10.07;4.53;;;24.50;15.70;;;;;;5086533;28;20485;-92
2021/04/27 07:17:46;;;;;;;7.20;5.50;;;24.10;14.90;;;;;;5083091;28;20507;-92
2021/04/27 07:20:13;;;;;;;9.83;5.00;;;23.60;15.00;;;;;;5080968;28;20439;-92
2021/04/27 07:22:40;;;;;;;10.53;5.83;;;23.60;15.80;;;;;;5080665;28;20442;-92
2021/04/27 07:25:10;;;;;;;7.60;4.97;;;24.50;15.10;;;;;;5081383;28;20443;-92
2021/04/27 07:27:37;;;;;;;10.00;5.60;;;23.40;15.40;;;;;;5081862;28;20478;-92
2021/04/27 07:30:06;;;;;;;10.27;5.67;;;23.50;16.50;;;;;;5083313;28;20455;-92
2021/04/27 07:32:34;;;;;;;11.37;6.13;;;22.90;15.90;;;;;;5082136;28;20451;-92
2021/04/27 07:35:01;;;;;;;7.27;5.23;;;21.90;17.00;;;;;;5084564;28;20475;-92
2021/04/27 07:37:27;;;;;;;8.90;5.33;;;22.90;16.60;;;;;;5097302;28;20455;-91
2021/04/27 07:39:54;;;;;;;8.80;5.27;;;24.10;15.40;;;;;;5083499;28;20431;-92
2021/04/27 07:42:21;;;;;;;9.00;5.57;;;24.10;15.50;;;;;;5081489;28;20822;-91
2021/04/27 07:44:47;;;;;;;10.47;5.47;;;23.60;15.50;;;;;;5080441;28;20450;-92
2021/04/27 07:47:14;;;;;;;9.67;5.10;;;23.10;15.60;;;;;;5081072;28;20448;-92
2021/04/27 07:49:42;;;;;;;10.47;5.70;;;21.50;16.80;;;;;;5080881;28;20811;-91
2021/04/27 07:52:08;;;;;;;10.60;5.83;;;21.50;17.50;;;;;;5080457;28;20452;-91
2021/04/27 07:54:38;;;;;;;9.60;6.37;;;21.30;17.20;;;;;;5085472;28;20482;-91
2021/04/27 07:57:05;;;;;;;10.37;5.70;;;21.00;17.40;;;;;;5091303;28;20507;-91
2021/04/27 07:59:32;;;;;;;12.70;5.87;;;20.30;18.70;;;;;;5077793;28;20438;-91
2021/04/27 08:01:58;;;;;;;10.63;6.60;;;19.70;17.90;;;;;;5078811;28;20448;-91
2021/04/27 08:04:25;;;;;;;10.40;6.63;;;20.20;18.20;;;;;;5078800;28;20443;-91
2021/04/27 08:06:52;;;;;;;10.40;6.50;;;20.20;18.20;;;;;;5079808;28;20874;-91
2021/04/27 08:09:19;;;;;;;11.73;6.30;;;20.00;18.70;;;;;;5079908;28;20455;-91
2021/04/27 08:11:46;;;;;;;22.07;6.33;;;20.10;18.50;;;;;;5078941;28;20474;-91
2021/04/27 08:14:13;;;;;;;8.80;6.07;;;20.20;18.70;;;;;;5077673;28;20544;-92
2021/04/27 08:16:40;;;;;;;11.90;6.70;;;19.80;18.00;;;;;;5077349;28;20839;-91
2021/04/27 08:19:07;;;;;;;11.70;5.90;;;20.10;18.70;;;;;;5079732;28;20471;-91
2021/04/27 08:21:34;;;;;;;20.13;6.30;;;20.40;18.30;;;;;;5079518;28;20538;-91
2021/04/27 08:24:02;;;;;;;10.37;6.67;;;19.80;18.30;;;;;;5080031;28;20447;-91
2021/04/27 08:26:29;;;;;;;12.37;6.67;;;19.60;18.80;;;;;;5077914;28;20475;-91
2021/04/27 08:28:56;;;;;;;10.73;6.83;;;19.80;19.00;;;;;;5079394;28;20443;-91
2021/04/27 08:31:22;;;;;;;13.40;7.97;;;19.90;19.00;;;;;;5082152;28;20447;-92
2021/04/27 08:33:49;;;;;;;10.00;5.80;;;20.30;18.90;;;;;;5085795;28;20498;-91
2021/04/27 08:36:19;;;;;;;13.80;6.30;;;20.70;18.50;;;;;;5095902;28;20455;-91
2021/04/27 08:38:46;;;;;;;20.07;7.10;;;21.00;18.30;;;;;;5094347;28;20477;-91
2021/04/27 08:41:13;;;;;;;12.13;7.10;;;20.30;18.30;;;;;;5083096;28;20821;-91
2021/04/27 08:43:42;;;;;;;10.53;5.97;;;20.30;18.30;;;;;;5083781;28;20526;-91
2021/04/27 08:46:09;;;;;;;24.90;7.20;;;20.60;18.50;;;;;;5081640;28;20467;-91
2021/04/27 08:48:36;;;;;;;15.27;6.57;;;20.00;19.40;;;;;;5081579;28;20454;-92
2021/04/27 08:51:02;;;;;;;25.37;7.00;;;19.40;19.50;;;;;;5080133;28;20994;-92
2021/04/27 08:53:29;;;;;;;11.47;6.17;;;19.10;20.10;;;;;;5080279;28;20823;-91
2021/04/27 08:55:55;;;;;;;8.70;6.27;;;18.90;20.90;;;;;;5078422;28;20544;-92
2021/04/27 08:58:23;;;;;;;13.57;7.57;;;18.20;20.80;;;;;;5081680;28;20847;-92
2021/04/27 09:00:49;;;;;;;14.50;6.50;;;17.60;21.20;;;;;;5080042;28;20432;-92
2021/04/27 09:03:16;;;;;;;18.33;8.10;;;16.90;23.20;;;;;;5080912;28;20489;-92
2021/04/27 09:05:44;;;;;;;12.67;7.70;;;15.90;22.80;;;;;;5080274;28;20475;-92
2021/04/27 09:08:12;;;;;;;9.50;7.17;;;15.30;24.00;;;;;;5080993;28;20478;-92
2021/04/27 09:10:43;;;;;;;13.50;7.37;;;15.00;24.30;;;;;;5080086;28;21058;-92
2021/04/27 09:13:12;;;;;;;13.40;7.60;;;15.60;24.70;;;;;;5077958;28;20458;-89
2021/04/27 09:15:44;;;;;;;13.00;7.93;;;15.60;23.50;;;;;;5079449;28;20490;-92
2021/04/27 09:18:29;;;;;;;18.23;8.13;;;15.50;24.20;;;;;;5096666;28;20443;-91
2021/04/27 09:20:57;;;;;;;12.93;7.20;;;16.10;23.60;;;;;;5096396;28;20431;-91
2021/04/27 09:23:24;;;;;;;14.73;7.50;;;15.90;23.30;;;;;;5094231;28;20440;-92
2021/04/27 09:26:08;;;;;;;16.70;7.57;;;15.80;23.40;;;;;;5084655;28;20983;-92
2021/04/27 09:32:32;;;;;;;13.13;7.50;;;16.30;23.50;;;;;;5021826;28;20784;-92
2021/04/27 09:34:59;;;;;;;12.93;7.27;;;15.90;24.00;;;;;;5020571;28;20489;-92
2021/04/27 09:37:25;;;;;;;14.07;7.90;;;15.90;23.20;;;;;;5019155;28;21046;-93
2021/04/27 09:40:52;;;;;;;10.43;7.33;;;15.80;23.60;;;;;;4980737;28;20436;-91
2021/04/27 09:43:18;;;;;;;17.70;8.60;;;16.50;22.70;;;;;;4980796;28;20936;-90
2021/04/27 09:45:46;;;;;;;18.67;8.37;;;16.50;23.50;;;;;;4982089;28;20483;-92
2021/04/27 09:48:14;;;;;;;14.53;7.60;;;17.10;22.20;;;;;;4980831;28;20447;-90
2021/04/27 09:50:42;;;;;;;13.70;7.40;;;16.20;23.30;;;;;;4979581;28;20486;-90
2021/04/27 09:53:08;;;;;;;20.80;8.10;;;16.80;22.80;;;;;;4981709;28;20551;-90
2021/04/27 09:55:35;;;;;;;17.70;8.27;;;16.70;22.30;;;;;;4999639;28;20893;-90
2021/04/27 09:58:03;;;;;;;62.87;31.27;;;16.20;23.20;;;;;;5070946;28;20423;-90
2021/04/27 10:00:34;;;;;;;14.47;7.93;;;16.20;22.90;;;;;;5084587;28;20486;-90
2021/04/27 10:03:04;;;;;;;18.33;8.53;;;15.80;23.20;;;;;;5080844;28;20538;-91
2021/04/27 10:05:32;;;;;;;18.73;9.03;;;16.40;23.10;;;;;;5080414;28;20520;-91
2021/04/27 10:14:04;;;;;;;19.33;7.73;;;16.60;22.60;;;;;;5081443;28;20496;-90
2021/04/27 10:16:32;;;;;;;13.10;8.60;;;16.10;23.10;;;;;;5080037;28;20487;-91
2021/04/27 10:18:59;;;;;;;14.77;9.20;;;16.20;23.40;;;;;;5080215;28;20435;-91
2021/04/27 10:21:26;;;;;;;16.67;8.27;;;16.60;22.40;;;;;;5079613;28;20431;-91
2021/04/27 10:23:56;;;;;;;16.80;8.63;;;17.10;22.00;;;;;;5080710;28;20967;-91
2021/04/27 10:26:24;;;;;;;22.73;9.43;;;17.40;22.50;;;;;;5084416;28;20482;-91
2021/04/27 10:29:06;;;;;;;17.10;8.80;;;16.90;22.50;;;;;;5096784;28;20455;-91
2021/04/27 10:34:27;;;;;;;13.43;8.93;;;17.20;22.00;;;;;;5100056;28;20470;-91
2021/04/27 10:37:07;;;;;;;17.33;9.73;;;16.90;22.20;;;;;;5099685;28;20447;-91
2021/04/27 10:39:39;;;;;;;16.03;8.93;;;16.70;22.70;;;;;;5100036;28;20439;-89
2021/04/27 10:42:16;;;;;;;11.70;7.83;;;16.80;22.40;;;;;;5094072;28;20463;-90
2021/04/27 10:44:54;;;;;;;14.97;8.60;;;17.30;22.40;;;;;;5085150;28;20439;-90
2021/04/27 10:47:31;;;;;;;14.57;8.87;;;17.40;22.60;;;;;;5084652;28;20447;-91
2021/04/27 10:49:59;;;;;;;22.67;9.00;;;17.30;22.10;;;;;;5095521;28;20458;-91
2021/04/27 10:52:32;;;;;;;17.03;8.87;;;17.30;22.20;;;;;;5098774;28;20461;-90
2021/04/27 10:55:25;;;;;;;18.37;8.93;;;17.40;22.10;;;;;;5099763;28;20479;-90
2021/04/27 10:57:56;;;;;;;13.57;8.30;;;17.00;21.90;;;;;;5099746;28;20427;-90
2021/04/27 11:06:42;;;;;;;15.53;9.10;;;16.80;22.50;;;;;;4980014;28;20476;-92
2021/04/27 11:09:27;;;;;;;24.20;9.90;;;16.70;21.70;;;;;;4981556;28;20483;-92
2021/04/27 11:11:54;;;;;;;15.57;8.93;;;16.60;22.80;;;;;;4977319;28;20538;-92
2021/04/27 11:17:28;;;;;;;13.73;8.33;;;17.20;21.20;;;;;;4980661;28;20459;-92
2021/04/27 11:23:51;;;;;;;15.63;10.13;;;17.40;21.10;;;;;;4885298;29;20936;-92
2021/04/27 11:27:06;;;;;;;18.97;8.00;;;17.40;21.70;;;;;;4819257;29;20943;-92
2021/04/27 11:29:35;;;;;;;11.43;8.20;;;17.40;21.80;;;;;;4899383;29;20475;-92
2021/04/27 11:32:12;;;;;;;12.70;8.77;;;17.80;21.10;;;;;;4911312;29;20459;-92
2021/04/27 11:34:57;;;;;;;15.17;8.33;;;17.70;21.50;;;;;;4920145;29;20483;-92
2021/04/27 11:37:25;;;;;;;16.27;8.90;;;18.00;20.80;;;;;;4921030;29;20491;-90
2021/04/27 11:39:53;;;;;;;19.33;9.43;;;17.90;20.70;;;;;;4920699;29;20432;-90
2021/04/27 11:42:26;;;;;;;14.93;8.93;;;17.90;21.40;;;;;;4920884;29;20440;-92
2021/04/27 11:44:58;;;;;;;11.43;7.97;;;17.70;20.60;;;;;;4913940;29;20451;-92
2021/04/27 11:47:25;;;;;;;12.37;8.17;;;17.50;21.40;;;;;;4905404;29;20447;-92
2021/04/27 11:49:55;;;;;;;16.47;8.30;;;18.10;20.70;;;;;;4905988;29;20456;-92
2021/04/27 11:52:42;;;;;;;15.27;8.10;;;18.20;20.80;;;;;;4906468;29;20456;-92
2021/04/27 11:55:15;;;;;;;12.60;7.83;;;18.20;20.70;;;;;;4909496;29;20491;-92
2021/04/27 11:57:44;;;;;;;10.50;8.03;;;18.20;19.70;;;;;;4913361;29;20444;-92
2021/04/27 12:00:12;;;;;;;12.43;7.87;;;18.40;20.20;;;;;;4938764;29;20445;-93
2021/04/27 12:02:38;;;;;;;14.77;7.97;;;18.40;20.40;;;;;;4947793;29;20536;-93
2021/04/27 12:05:31;;;;;;;12.70;7.50;;;18.60;20.60;;;;;;4943340;28;20488;-92
2021/04/27 12:07:57;;;;;;;10.77;7.80;;;18.60;19.50;;;;;;5056654;28;20543;-93
2021/04/27 12:10:24;;;;;;;19.03;10.30;;;18.70;19.20;;;;;;5057829;28;20482;-92
2021/04/27 12:12:51;;;;;;;17.00;8.87;;;18.30;20.00;;;;;;5060639;28;20449;-92
2021/04/27 12:15:23;;;;;;;13.60;7.77;;;18.20;19.40;;;;;;5062682;28;20607;-92
2021/04/27 12:17:49;;;;;;;11.97;7.70;;;18.50;19.70;;;;;;5078498;28;20431;-91
2021/04/27 12:20:17;;;;;;;12.20;8.00;;;18.40;18.80;;;;;;5078013;28;20475;-91
2021/04/27 12:22:47;;;;;;;11.70;7.77;;;18.50;18.80;;;;;;5077322;28;20432;-91
2021/04/27 12:25:22;;;;;;;11.80;6.87;;;19.00;18.40;;;;;;5077727;28;20534;-92
2021/04/27 12:27:52;;;;;;;12.70;7.87;;;18.60;18.00;;;;;;5076821;28;20427;-91
2021/04/27 12:30:22;;;;;;;12.40;8.07;;;18.20;18.90;;;;;;5077653;28;20870;-93
2021/04/27 12:32:59;;;;;;;9.83;6.90;;;18.30;19.90;;;;;;5077146;28;20471;-92
2021/04/27 12:38:12;;;;;;;15.57;8.30;;;18.20;18.50;;;;;;5077921;28;20477;-91
2021/04/27 12:40:40;;;;;;;10.60;7.53;;;18.70;17.90;;;;;;5077689;28;20439;-92
2021/04/27 12:43:10;;;;;;;10.40;7.33;;;19.10;18.10;;;;;;5081530;28;20469;-92
2021/04/27 12:45:48;;;;;;;11.00;6.37;;;19.50;17.70;;;;;;5081023;28;20528;-91
2021/04/27 12:48:16;;;;;;;12.60;7.70;;;20.00;18.00;;;;;;5079034;28;20458;-91
2021/04/27 12:50:49;;;;;;;13.53;6.83;;;19.80;17.10;;;;;;5079668;28;20536;-91
2021/04/27 12:53:15;;;;;;;23.80;7.20;;;19.00;17.40;;;;;;5079787;28;20865;-92
2021/04/27 12:55:50;;;;;;;11.43;7.03;;;18.40;18.20;;;;;;5085546;28;20475;-93
2021/04/27 12:58:19;;;;;;;10.63;7.10;;;18.80;18.20;;;;;;5079995;28;20505;-91
2021/04/27 13:00:57;;;;;;;9.43;6.73;;;18.60;17.90;;;;;;5084326;28;20467;-92
2021/04/27 13:03:28;;;;;;;15.23;7.10;;;18.50;18.60;;;;;;5088273;28;20467;-92
2021/04/27 13:05:55;;;;;;;9.97;6.53;;;18.30;18.80;;;;;;5086184;28;20478;-91
2021/04/27 13:08:25;;;;;;;12.73;7.00;;;18.90;17.90;;;;;;5081634;28;20819;-92
2021/04/27 13:10:53;;;;;;;14.03;6.90;;;19.10;17.40;;;;;;5084669;28;20431;-93
2021/04/27 13:13:22;;;;;;;11.83;8.30;;;19.10;18.00;;;;;;5084881;28;20478;-90
2021/04/27 13:15:54;;;;;;;10.60;6.43;;;18.90;17.50;;;;;;5088012;28;20486;-91
2021/04/27 13:18:23;;;;;;;19.83;6.70;;;19.00;18.30;;;;;;5086535;28;20501;-92
2021/04/27 13:20:51;;;;;;;9.50;7.10;;;18.90;17.20;;;;;;5080537;28;20442;-92
2021/04/27 13:23:19;;;;;;;12.03;6.33;;;18.40;17.50;;;;;;5081274;28;20474;-91
2021/04/27 13:25:48;;;;;;;16.33;7.20;;;18.80;17.60;;;;;;5079391;28;20551;-91
2021/04/27 13:28:18;;;;;;;9.67;7.00;;;19.20;17.50;;;;;;5079519;28;20803;-92
2021/04/27 13:30:51;;;;;;;10.73;7.03;;;19.30;17.00;;;;;;5080155;28;20450;-92
2021/04/27 13:33:19;;;;;;;12.20;7.10;;;19.50;17.10;;;;;;5080171;28;20514;-92
2021/04/27 13:35:48;;;;;;;8.73;6.10;;;19.60;16.70;;;;;;5083861;28;20529;-91
2021/04/27 13:38:17;;;;;;;8.13;6.27;;;19.80;16.80;;;;;;5081668;28;20455;-91
2021/04/27 13:40:47;;;;;;;14.20;6.30;;;20.00;17.50;;;;;;5080607;28;20490;-91
2021/04/27 13:43:16;;;;;;;12.43;7.20;;;19.40;17.00;;;;;;5081047;28;20443;-91
2021/04/27 13:45:43;;;;;;;18.90;6.50;;;18.50;17.10;;;;;;5082688;28;20560;-93
2021/04/27 13:48:11;;;;;;;13.67;6.90;;;18.30;16.90;;;;;;5085656;28;20440;-93
2021/04/27 13:50:41;;;;;;;15.00;6.07;;;18.50;17.00;;;;;;5082209;28;20474;-92
2021/04/27 13:53:08;;;;;;;12.43;6.90;;;19.20;16.80;;;;;;5082248;28;20427;-91
2021/04/27 13:55:36;;;;;;;11.87;5.97;;;19.40;16.60;;;;;;5084507;28;20506;-92
2021/04/27 14:08:16;;;;;;;9.13;6.53;;;19.10;16.60;;;;;;4935438;29;20423;-93
2021/04/27 16:19:22;;;;;;;20.97;6.17;;;19.20;15.60;;;;;;5086648;28;20942;-93
